Time;durP1;ratioP1;P1;durP2;ratioP2;P2;SDS_P1;SDS_P2;PMS_P1;PMS_P2;Temp;Humidity;BMP_temperature;BMP_pressure;BME280_temperature;BME280_humidity;BME280_pressure;Samples;Min_cycle;Max_cycle;Signal;HPM_P1;HPM_P2
2023/12/25 00:02:14;;;;;;;17.20;14.73;;;19.40;47.50;;;;;;4988064;28;20710;-75
2023/12/25 00:04:40;;;;;;;18.73;14.60;;;19.30;46.80;;;;;;4992595;28;20631;-72
2023/12/25 00:07:07;;;;;;;15.50;13.93;;;19.40;46.80;;;;;;4989481;28;20238;-74
2023/12/25 00:09:33;;;;;;;18.37;15.10;;;19.40;46.80;;;;;;4981315;28;20252;-73
2023/12/25 00:11:58;;;;;;;15.93;14.47;;;19.30;46.70;;;;;;4989934;28;20576;-75
2023/12/25 00:14:24;;;;;;;16.40;13.90;;;19.40;46.80;;;;;;4994286;28;20227;-72
2023/12/25 00:16:49;;;;;;;16.40;14.70;;;19.30;46.80;;;;;;4994373;28;20238;-75
2023/12/25 00:19:15;;;;;;;18.13;15.07;;;19.30;46.80;;;;;;4988148;28;20227;-74
2023/12/25 00:21:40;;;;;;;15.27;13.23;;;19.40;46.90;;;;;;4982735;28;20220;-75
2023/12/25 00:24:06;;;;;;;15.17;13.67;;;19.30;46.80;;;;;;4991911;28;20227;-73
2023/12/25 00:26:32;;;;;;;16.07;13.57;;;19.30;46.80;;;;;;4993041;28;20293;-75
2023/12/25 00:28:57;;;;;;;15.47;13.90;;;19.30;46.80;;;;;;4978076;28;20220;-69
2023/12/25 00:31:23;;;;;;;15.87;14.23;;;19.30;46.70;;;;;;4995118;28;20706;-69
2023/12/25 00:33:48;;;;;;;16.83;12.97;;;19.30;46.80;;;;;;4970947;28;20232;-69
2023/12/25 00:36:14;;;;;;;15.50;13.73;;;19.30;46.80;;;;;;4978397;28;20768;-69
2023/12/25 00:38:39;;;;;;;13.70;12.40;;;19.30;46.80;;;;;;4986966;28;20663;-70
2023/12/25 00:41:05;;;;;;;15.63;12.63;;;19.30;46.80;;;;;;4974758;28;20318;-68
2023/12/25 00:43:30;;;;;;;14.40;13.00;;;19.30;46.80;;;;;;4979431;28;20307;-70
2023/12/25 00:45:57;;;;;;;13.80;12.50;;;19.30;46.80;;;;;;4974351;28;20231;-72
2023/12/25 00:48:23;;;;;;;14.03;12.53;;;19.30;46.90;;;;;;4980334;28;20743;-69
2023/12/25 00:50:48;;;;;;;13.93;12.57;;;19.30;46.80;;;;;;4979681;28;20444;-69
2023/12/25 00:53:14;;;;;;;16.47;12.53;;;19.30;46.90;;;;;;4979802;28;20558;-69
2023/12/25 00:55:39;;;;;;;12.93;11.80;;;19.30;46.80;;;;;;4989395;28;20227;-70
2023/12/25 00:58:05;;;;;;;13.80;12.50;;;19.30;46.80;;;;;;4985953;28;20239;-71
2023/12/25 01:00:31;;;;;;;13.27;12.00;;;19.30;46.80;;;;;;4979438;28;20219;-72
2023/12/25 01:02:56;;;;;;;14.87;11.80;;;19.30;46.80;;;;;;4992594;28;20228;-69
2023/12/25 01:05:22;;;;;;;13.40;11.83;;;19.30;46.80;;;;;;4994361;28;20250;-69
2023/12/25 01:07:47;;;;;;;13.67;12.03;;;19.30;46.80;;;;;;4988168;28;20236;-69
2023/12/25 01:10:13;;;;;;;13.00;10.73;;;19.30;46.80;;;;;;4989783;28;20227;-72
2023/12/25 01:12:38;;;;;;;13.03;11.67;;;19.30;46.90;;;;;;4981500;28;20759;-69
2023/12/25 01:15:04;;;;;;;11.87;10.73;;;19.30;46.80;;;;;;4986603;28;20564;-69
2023/12/25 01:17:30;;;;;;;12.83;11.50;;;19.30;46.80;;;;;;4985715;28;20767;-68
2023/12/25 01:19:56;;;;;;;13.63;12.23;;;19.30;46.90;;;;;;4985213;28;20228;-72
2023/12/25 01:22:21;;;;;;;11.90;10.80;;;19.30;46.80;;;;;;4973781;28;20452;-69
2023/12/25 01:24:47;;;;;;;11.50;10.40;;;19.30;46.80;;;;;;4976839;28;20706;-69
2023/12/25 01:27:12;;;;;;;11.80;10.67;;;19.30;46.80;;;;;;4981089;28;20223;-69
2023/12/25 01:29:38;;;;;;;11.07;10.10;;;19.30;46.90;;;;;;4992104;28;20250;-69
2023/12/25 01:32:03;;;;;;;10.70;9.77;;;19.30;46.80;;;;;;4990048;28;20703;-69
2023/12/25 01:34:29;;;;;;;12.20;11.10;;;19.30;46.90;;;;;;4992113;28;20224;-69
2023/12/25 01:36:54;;;;;;;11.90;10.70;;;19.30;46.80;;;;;;4993250;28;20234;-69
2023/12/25 01:39:21;;;;;;;11.93;10.80;;;19.30;46.90;;;;;;4991804;28;22949;-69
2023/12/25 01:41:46;;;;;;;10.20;9.30;;;19.30;46.90;;;;;;4984810;28;20256;-69
2023/12/25 01:44:12;;;;;;;11.70;10.63;;;19.20;46.80;;;;;;4981188;28;20440;-71
2023/12/25 01:46:38;;;;;;;12.00;10.77;;;19.30;46.90;;;;;;4973142;28;20314;-69
2023/12/25 01:49:05;;;;;;;11.87;10.67;;;19.30;46.90;;;;;;4977375;28;20737;-75
2023/12/25 01:51:31;;;;;;;11.40;10.27;;;19.30;46.90;;;;;;4979535;28;20530;-75
2023/12/25 01:53:57;;;;;;;11.90;10.73;;;19.30;46.90;;;;;;4992172;28;20440;-75
2023/12/25 01:56:23;;;;;;;10.90;9.90;;;19.30;46.90;;;;;;4989673;28;20451;-75
2023/12/25 01:58:48;;;;;;;11.03;10.03;;;19.30;46.90;;;;;;4989801;28;20542;-75
2023/12/25 02:01:14;;;;;;;10.73;9.73;;;19.30;46.90;;;;;;4989790;28;20236;-71
2023/12/25 02:03:41;;;;;;;11.43;10.40;;;19.30;47.70;;;;;;4981669;28;21046;-74
2023/12/25 02:06:08;;;;;;;10.60;9.53;;;19.30;46.90;;;;;;4986955;28;20239;-73
2023/12/25 02:08:34;;;;;;;10.43;9.53;;;19.30;47.00;;;;;;4988449;28;20420;-74
2023/12/25 02:11:03;;;;;;;11.40;10.20;;;19.30;46.90;;;;;;4962347;28;20429;-75
2023/12/25 02:13:29;;;;;;;9.80;9.00;;;19.30;46.90;;;;;;4981754;28;20232;-75
2023/12/25 02:15:55;;;;;;;11.20;10.00;;;19.30;46.90;;;;;;4989297;28;20527;-75
2023/12/25 02:18:21;;;;;;;9.40;8.60;;;19.30;47.00;;;;;;4987082;28;20388;-74
2023/12/25 02:20:47;;;;;;;11.00;9.83;;;19.30;46.90;;;;;;4987652;28;20315;-75
2023/12/25 02:23:16;;;;;;;9.77;8.80;;;19.30;47.00;;;;;;4986147;28;20211;-73
2023/12/25 02:25:50;;;;;;;9.40;8.60;;;19.30;46.90;;;;;;4983843;28;21380;-71
2023/12/25 02:28:16;;;;;;;9.17;8.47;;;19.30;46.90;;;;;;4985707;28;20797;-72
2023/12/25 02:30:41;;;;;;;9.67;8.67;;;19.30;46.90;;;;;;4987854;28;20437;-75
2023/12/25 02:33:07;;;;;;;9.27;8.50;;;19.30;46.90;;;;;;4988978;28;20219;-72
2023/12/25 02:35:32;;;;;;;9.37;8.67;;;19.20;46.80;;;;;;4976367;28;20241;-74
2023/12/25 02:37:58;;;;;;;9.43;8.60;;;19.20;46.80;;;;;;4975317;28;20302;-74
2023/12/25 02:40:23;;;;;;;9.17;8.40;;;19.30;46.90;;;;;;4989451;28;20219;-73
2023/12/25 02:42:49;;;;;;;9.10;8.30;;;19.20;46.80;;;;;;4990842;28;20219;-73
2023/12/25 02:45:14;;;;;;;8.60;7.90;;;19.30;46.90;;;;;;4976136;28;20208;-74
2023/12/25 02:47:40;;;;;;;14.20;8.10;;;19.20;46.80;;;;;;4988056;28;20238;-75
2023/12/25 02:50:06;;;;;;;9.47;8.67;;;19.30;46.90;;;;;;4988327;28;20227;-71
2023/12/25 02:52:31;;;;;;;8.73;7.93;;;19.30;46.90;;;;;;4973515;28;20334;-75
2023/12/25 02:54:57;;;;;;;8.83;8.10;;;19.30;46.90;;;;;;4991509;28;20219;-75
2023/12/25 02:57:22;;;;;;;9.20;8.40;;;19.30;47.00;;;;;;4987547;28;20247;-75
2023/12/25 02:59:48;;;;;;;7.67;7.07;;;19.30;47.00;;;;;;4980723;28;20224;-75
2023/12/25 03:02:14;;;;;;;8.30;7.60;;;19.30;47.00;;;;;;4988343;28;20246;-75
2023/12/25 03:04:39;;;;;;;9.20;8.33;;;19.30;47.00;;;;;;4988868;28;20270;-75
2023/12/25 03:07:05;;;;;;;10.43;7.20;;;19.30;47.00;;;;;;4988761;28;20255;-75
2023/12/25 03:09:30;;;;;;;8.17;7.50;;;19.30;47.00;;;;;;4983130;28;20228;-72
2023/12/25 03:11:56;;;;;;;9.13;8.33;;;19.30;47.00;;;;;;4968120;28;20646;-71
2023/12/25 03:14:21;;;;;;;8.83;8.03;;;19.30;47.00;;;;;;4992073;28;20527;-70
2023/12/25 03:16:47;;;;;;;7.50;7.00;;;19.30;47.00;;;;;;4988852;28;20250;-70
2023/12/25 03:19:12;;;;;;;7.37;6.97;;;19.20;46.90;;;;;;4987364;28;20223;-72
2023/12/25 03:21:38;;;;;;;8.83;7.77;;;19.20;46.90;;;;;;4989861;28;20936;-73
2023/12/25 03:24:03;;;;;;;7.17;6.67;;;19.20;47.00;;;;;;4987397;28;20220;-73
2023/12/25 03:26:29;;;;;;;7.30;6.80;;;19.20;46.90;;;;;;4986422;28;20338;-72
2023/12/25 03:28:54;;;;;;;7.27;6.77;;;19.30;47.00;;;;;;4980287;28;20227;-69
2023/12/25 03:31:20;;;;;;;8.07;7.33;;;19.20;46.90;;;;;;4987856;28;20219;-70
2023/12/25 03:33:46;;;;;;;6.60;6.30;;;19.20;47.00;;;;;;4993256;28;20315;-69
2023/12/25 03:36:11;;;;;;;7.90;7.30;;;19.20;46.90;;;;;;4976331;28;20819;-73
2023/12/25 03:38:37;;;;;;;6.60;6.10;;;19.30;47.00;;;;;;4989171;28;20230;-72
2023/12/25 03:41:02;;;;;;;6.53;6.13;;;19.30;47.00;;;;;;4992845;28;20230;-71
2023/12/25 03:43:28;;;;;;;7.80;7.17;;;19.20;46.90;;;;;;4985022;28;20247;-72
2023/12/25 03:45:53;;;;;;;6.90;6.40;;;19.20;47.00;;;;;;4989366;28;20263;-71
2023/12/25 03:48:20;;;;;;;6.50;6.10;;;19.20;47.00;;;;;;4981627;28;20699;-72
2023/12/25 03:50:46;;;;;;;7.50;6.93;;;19.20;46.90;;;;;;4987161;28;20737;-72
2023/12/25 03:53:11;;;;;;;6.17;5.80;;;19.20;46.90;;;;;;4987856;28;20540;-72
2023/12/25 03:55:37;;;;;;;7.17;6.60;;;19.20;46.90;;;;;;4989520;28;20228;-69
2023/12/25 03:58:03;;;;;;;7.10;6.50;;;19.20;47.00;;;;;;4981626;28;20242;-73
2023/12/25 04:00:29;;;;;;;7.30;6.60;;;19.20;46.90;;;;;;4979156;28;20565;-74
2023/12/25 04:02:55;;;;;;;6.00;5.60;;;19.20;46.90;;;;;;4989742;28;20445;-74
2023/12/25 04:05:22;;;;;;;5.67;5.30;;;19.20;46.90;;;;;;4986331;28;20228;-74
2023/12/25 04:07:48;;;;;;;5.87;5.47;;;19.20;46.90;;;;;;4993235;28;20436;-74
2023/12/25 04:10:14;;;;;;;5.87;5.47;;;19.20;46.90;;;;;;4977202;28;20457;-74
2023/12/25 04:12:39;;;;;;;6.00;5.60;;;19.20;46.90;;;;;;4983189;28;20760;-74
2023/12/25 04:15:06;;;;;;;6.73;6.33;;;19.20;46.90;;;;;;4988268;28;20454;-74
2023/12/25 04:17:31;;;;;;;5.73;5.07;;;19.30;47.00;;;;;;4986009;28;20579;-74
2023/12/25 04:19:57;;;;;;;8.67;5.20;;;19.30;47.00;;;;;;4988198;28;20431;-74
2023/12/25 04:22:22;;;;;;;6.13;5.60;;;19.30;47.00;;;;;;4982981;28;20217;-74
2023/12/25 04:24:48;;;;;;;6.27;5.87;;;19.30;47.00;;;;;;4985334;28;20219;-74
2023/12/25 04:27:14;;;;;;;6.00;5.50;;;19.30;46.90;;;;;;4984890;28;20225;-74
2023/12/25 04:29:39;;;;;;;5.83;5.40;;;19.30;47.00;;;;;;4987519;28;20227;-74
2023/12/25 04:32:05;;;;;;;5.17;4.83;;;19.30;47.00;;;;;;4975753;28;20334;-75
2023/12/25 04:34:31;;;;;;;5.17;4.87;;;19.30;46.90;;;;;;4982123;28;20223;-75
2023/12/25 04:36:56;;;;;;;6.20;5.80;;;19.20;47.00;;;;;;4983683;28;20213;-75
2023/12/25 04:39:22;;;;;;;5.43;5.10;;;19.30;47.00;;;;;;4971324;28;20263;-75
2023/12/25 04:41:47;;;;;;;5.00;4.70;;;19.20;46.90;;;;;;4986755;28;20223;-75
2023/12/25 04:44:13;;;;;;;5.23;4.93;;;19.30;47.00;;;;;;4985844;28;20208;-75
2023/12/25 04:46:39;;;;;;;5.33;4.70;;;19.30;47.00;;;;;;4976419;28;20246;-75
2023/12/25 04:49:05;;;;;;;4.83;4.43;;;19.30;47.00;;;;;;4977424;28;20628;-74
2023/12/25 04:51:31;;;;;;;4.73;4.43;;;19.30;47.00;;;;;;4985725;28;20461;-74
2023/12/25 04:53:57;;;;;;;4.70;4.40;;;19.30;46.90;;;;;;4987713;28;20441;-74
2023/12/25 04:56:22;;;;;;;4.70;4.33;;;19.30;46.90;;;;;;4991934;28;20287;-74
2023/12/25 04:58:48;;;;;;;5.60;5.20;;;19.30;46.90;;;;;;4990369;28;20223;-76
2023/12/25 05:01:13;;;;;;;5.20;4.80;;;19.30;46.90;;;;;;4971862;28;20260;-75
2023/12/25 05:03:39;;;;;;;4.63;4.37;;;19.30;46.90;;;;;;4983830;28;20221;-74
2023/12/25 05:06:04;;;;;;;4.03;3.83;;;19.30;46.90;;;;;;4985740;28;20244;-74
2023/12/25 05:08:30;;;;;;;6.07;4.40;;;19.30;46.90;;;;;;4975634;28;20766;-74
2023/12/25 05:10:55;;;;;;;4.33;4.03;;;19.30;46.90;;;;;;4976237;28;20719;-74
2023/12/25 05:13:21;;;;;;;4.30;4.00;;;19.30;46.80;;;;;;4988997;28;20792;-74
2023/12/25 05:15:46;;;;;;;3.80;3.50;;;19.30;46.90;;;;;;4984222;28;20223;-74
2023/12/25 05:18:12;;;;;;;4.33;4.03;;;19.30;46.80;;;;;;4990032;28;20710;-73
2023/12/25 05:20:37;;;;;;;4.13;3.73;;;19.30;46.80;;;;;;4991191;28;20257;-74
2023/12/25 05:23:03;;;;;;;3.70;3.50;;;19.30;46.80;;;;;;4980034;28;20216;-74
2023/12/25 05:25:29;;;;;;;4.10;3.80;;;19.30;46.90;;;;;;4990617;28;20223;-74
2023/12/25 05:27:55;;;;;;;4.23;3.93;;;19.30;46.80;;;;;;4984119;28;20239;-74
2023/12/25 05:30:20;;;;;;;4.00;3.80;;;19.30;46.80;;;;;;4979316;28;20780;-73
2023/12/25 05:32:46;;;;;;;3.77;3.57;;;19.30;46.80;;;;;;4992988;28;20227;-74
2023/12/25 05:35:11;;;;;;;4.20;3.90;;;19.30;46.80;;;;;;4979003;28;20714;-74
2023/12/25 05:37:37;;;;;;;3.67;3.00;;;19.30;46.80;;;;;;4981470;28;20598;-73
2023/12/25 05:40:03;;;;;;;3.93;3.63;;;19.30;46.80;;;;;;4977133;28;20244;-74
2023/12/25 05:42:29;;;;;;;3.47;3.17;;;19.30;46.80;;;;;;4976618;28;20226;-73
2023/12/25 05:44:55;;;;;;;4.03;3.73;;;19.30;46.80;;;;;;4982931;28;20424;-74
2023/12/25 05:47:20;;;;;;;3.40;3.20;;;19.30;46.80;;;;;;4987839;28;20243;-73
2023/12/25 05:49:46;;;;;;;3.80;3.00;;;19.30;46.70;;;;;;4990399;28;20306;-76
2023/12/25 05:52:12;;;;;;;3.90;3.60;;;19.30;46.80;;;;;;4990795;28;20219;-77
2023/12/25 05:54:37;;;;;;;3.30;3.10;;;19.30;46.80;;;;;;4977003;28;20220;-81
2023/12/25 05:57:03;;;;;;;3.10;2.90;;;19.30;46.80;;;;;;4985831;28;20223;-74
2023/12/25 05:59:29;;;;;;;3.00;2.90;;;19.30;46.80;;;;;;4984665;28;20250;-73
2023/12/25 06:01:54;;;;;;;3.00;2.80;;;19.30;46.70;;;;;;4983573;28;20239;-73
2023/12/25 06:04:20;;;;;;;2.77;2.60;;;19.30;46.80;;;;;;4989668;28;20281;-73
2023/12/25 06:06:45;;;;;;;2.90;2.70;;;19.30;46.80;;;;;;4992059;28;20235;-73
2023/12/25 06:09:12;;;;;;;3.57;3.37;;;19.30;46.80;;;;;;4989714;28;20702;-74
2023/12/25 06:11:38;;;;;;;3.20;3.00;;;19.30;46.80;;;;;;4981473;28;20591;-74
2023/12/25 06:14:04;;;;;;;2.83;2.63;;;19.30;46.80;;;;;;4988493;28;20461;-74
2023/12/25 06:16:29;;;;;;;3.30;3.10;;;19.30;46.80;;;;;;4993449;28;20432;-74
2023/12/25 06:18:55;;;;;;;3.00;2.80;;;19.30;46.80;;;;;;4965516;28;20223;-74
2023/12/25 06:21:21;;;;;;;3.37;3.17;;;19.30;46.70;;;;;;4978337;28;20246;-74
2023/12/25 06:23:46;;;;;;;3.00;2.80;;;19.30;46.80;;;;;;4987046;28;20331;-74
2023/12/25 06:26:12;;;;;;;3.73;3.00;;;19.30;46.80;;;;;;4982717;28;20232;-74
2023/12/25 06:28:37;;;;;;;2.97;2.77;;;19.30;46.80;;;;;;4983741;28;20988;-73
2023/12/25 06:31:03;;;;;;;2.50;2.30;;;19.40;46.80;;;;;;4972850;28;20237;-73
2023/12/25 06:33:29;;;;;;;2.60;2.50;;;19.40;46.80;;;;;;4988046;28;20330;-75
2023/12/25 06:35:54;;;;;;;2.53;2.40;;;19.30;46.70;;;;;;4979480;28;20230;-75
2023/12/25 06:38:20;;;;;;;2.77;2.57;;;19.40;46.80;;;;;;4970059;28;21038;-74
2023/12/25 06:40:45;;;;;;;2.50;2.40;;;19.30;46.70;;;;;;4981827;28;20221;-73
2023/12/25 06:43:11;;;;;;;2.73;2.63;;;19.40;46.80;;;;;;4979491;28;20595;-74
2023/12/25 06:45:36;;;;;;;2.40;2.30;;;19.40;46.80;;;;;;4972259;28;20255;-74
2023/12/25 06:48:02;;;;;;;2.50;2.30;;;19.40;46.80;;;;;;4973652;28;20327;-75
2023/12/25 06:50:28;;;;;;;2.23;2.13;;;19.40;46.80;;;;;;4971620;28;20682;-75
2023/12/25 06:52:54;;;;;;;2.40;2.20;;;19.40;46.80;;;;;;4959843;28;20224;-74
2023/12/25 06:55:19;;;;;;;2.07;1.97;;;19.40;46.80;;;;;;4981235;28;20561;-73
2023/12/25 06:57:45;;;;;;;2.00;1.90;;;19.30;46.70;;;;;;4968084;28;20242;-69
2023/12/25 07:00:11;;;;;;;2.00;1.90;;;19.40;46.70;;;;;;4981396;28;20706;-70
2023/12/25 07:02:37;;;;;;;2.03;1.93;;;19.30;46.70;;;;;;4992333;28;20278;-69
2023/12/25 07:05:04;;;;;;;2.63;2.53;;;19.40;46.80;;;;;;4991491;28;20447;-70
2023/12/25 07:07:30;;;;;;;2.20;2.10;;;19.40;46.80;;;;;;4990772;28;20977;-73
2023/12/25 07:09:56;;;;;;;2.20;2.00;;;19.40;46.70;;;;;;4989785;28;20453;-73
2023/12/25 07:12:23;;;;;;;2.10;2.00;;;19.40;46.70;;;;;;4990918;28;20362;-73
2023/12/25 07:14:48;;;;;;;1.90;1.80;;;19.40;46.70;;;;;;4992592;28;20241;-73
2023/12/25 07:17:14;;;;;;;2.13;2.03;;;19.30;46.70;;;;;;4987045;28;20440;-73
2023/12/25 07:19:39;;;;;;;2.07;1.97;;;19.40;46.80;;;;;;4994116;28;20286;-72
2023/12/25 07:22:05;;;;;;;2.00;1.90;;;19.40;46.70;;;;;;4988564;28;20774;-72
2023/12/25 07:24:30;;;;;;;2.10;2.00;;;19.40;46.70;;;;;;4984469;28;20226;-74
2023/12/25 07:26:56;;;;;;;1.80;1.70;;;19.40;46.80;;;;;;4990029;28;20266;-73
2023/12/25 07:29:23;;;;;;;2.20;2.10;;;19.40;46.80;;;;;;4985762;28;20816;-70
2023/12/25 07:31:48;;;;;;;2.03;1.93;;;19.40;46.70;;;;;;4979010;28;20813;-68
2023/12/25 07:34:14;;;;;;;1.80;1.70;;;19.40;46.70;;;;;;4987583;28;20442;-73
2023/12/25 07:36:40;;;;;;;1.90;1.80;;;19.40;46.70;;;;;;4988313;28;20235;-73
2023/12/25 07:39:05;;;;;;;2.10;2.00;;;19.40;46.70;;;;;;4982360;28;20263;-70
2023/12/25 07:41:31;;;;;;;1.70;1.60;;;19.40;47.50;;;;;;4990100;28;20220;-70
2023/12/25 07:44:00;;;;;;;1.80;1.70;;;19.40;46.70;;;;;;4990463;28;20223;-68
2023/12/25 07:46:26;;;;;;;1.90;1.80;;;19.40;46.70;;;;;;4984560;28;20443;-70
2023/12/25 07:48:52;;;;;;;2.23;2.03;;;19.40;46.70;;;;;;4992264;28;20420;-69
2023/12/25 07:51:18;;;;;;;1.90;1.80;;;19.40;46.70;;;;;;4994270;28;20956;-68
2023/12/25 07:53:43;;;;;;;1.97;1.87;;;19.40;46.70;;;;;;4988927;28;20223;-70
2023/12/25 07:56:09;;;;;;;1.67;1.57;;;19.40;46.70;;;;;;4982902;28;20208;-71
2023/12/25 07:58:35;;;;;;;1.87;1.77;;;19.40;46.70;;;;;;4987263;28;20224;-69
2023/12/25 08:01:01;;;;;;;2.00;1.90;;;19.40;46.80;;;;;;4990161;28;20220;-69
2023/12/25 08:03:27;;;;;;;1.80;1.70;;;19.40;46.80;;;;;;4992116;28;20461;-68
2023/12/25 08:05:53;;;;;;;2.47;1.80;;;19.40;46.70;;;;;;4992200;28;20228;-70
2023/12/25 08:08:18;;;;;;;1.80;1.70;;;19.40;46.80;;;;;;4986731;28;20715;-70
2023/12/25 08:10:44;;;;;;;1.70;1.60;;;19.40;46.80;;;;;;4987413;28;20222;-69
2023/12/25 08:13:09;;;;;;;1.97;1.87;;;19.40;46.70;;;;;;4993745;28;20731;-69
2023/12/25 08:15:36;;;;;;;1.80;1.70;;;19.40;46.80;;;;;;4995184;28;20355;-69
2023/12/25 08:18:01;;;;;;;2.03;1.93;;;19.40;46.80;;;;;;4990698;28;20610;-68
2023/12/25 08:20:27;;;;;;;3.33;2.10;;;19.40;46.80;;;;;;4994931;28;20417;-69
2023/12/25 08:22:52;;;;;;;2.30;2.10;;;19.40;46.80;;;;;;4987560;28;20232;-69
2023/12/25 08:25:18;;;;;;;1.77;1.67;;;19.40;46.80;;;;;;4994425;28;20223;-72
2023/12/25 08:27:44;;;;;;;2.10;2.00;;;19.40;46.80;;;;;;4984583;28;20877;-68
2023/12/25 08:30:11;;;;;;;1.80;1.70;;;19.40;46.80;;;;;;4981452;28;20314;-69
2023/12/25 08:32:36;;;;;;;2.50;1.97;;;19.40;46.80;;;;;;5000485;28;20458;-73
2023/12/25 08:35:03;;;;;;;2.20;2.10;;;19.40;46.80;;;;;;4987019;28;20809;-72
2023/12/25 08:37:29;;;;;;;2.20;2.10;;;19.40;46.80;;;;;;4978940;28;20223;-69
2023/12/25 08:39:54;;;;;;;2.30;2.20;;;19.40;46.80;;;;;;4969266;28;20466;-74
2023/12/25 08:42:20;;;;;;;2.20;2.10;;;19.40;46.90;;;;;;4984872;28;20224;-72
2023/12/25 08:44:45;;;;;;;2.37;2.17;;;19.40;47.00;;;;;;4984777;28;20231;-70
2023/12/25 08:47:11;;;;;;;2.90;2.23;;;19.30;46.80;;;;;;4997250;28;20725;-69
2023/12/25 08:49:37;;;;;;;2.20;2.10;;;19.40;46.90;;;;;;4993992;28;20669;-76
2023/12/25 08:52:03;;;;;;;2.67;2.47;;;19.40;46.90;;;;;;4996063;28;20266;-74
2023/12/25 08:54:29;;;;;;;2.10;2.00;;;19.40;47.00;;;;;;4985506;28;20694;-74
2023/12/25 08:56:54;;;;;;;2.20;2.00;;;19.40;47.00;;;;;;4986989;28;20811;-74
2023/12/25 08:59:20;;;;;;;2.00;1.90;;;19.40;47.00;;;;;;4986819;28;20270;-74
2023/12/25 09:01:46;;;;;;;2.47;2.27;;;19.40;47.00;;;;;;4988214;28;20320;-75
2023/12/25 09:04:12;;;;;;;2.10;2.00;;;19.40;47.00;;;;;;4986105;28;20578;-74
2023/12/25 09:06:38;;;;;;;2.50;2.00;;;19.40;47.00;;;;;;4994725;28;20236;-74
2023/12/25 09:09:04;;;;;;;1.70;1.60;;;19.40;47.00;;;;;;4990259;28;20444;-75
2023/12/25 09:11:30;;;;;;;1.90;1.80;;;19.40;47.00;;;;;;4984091;28;20220;-74
2023/12/25 09:13:55;;;;;;;2.37;2.23;;;19.40;47.10;;;;;;4989850;28;21005;-75
2023/12/25 09:16:21;;;;;;;1.90;1.80;;;19.40;47.10;;;;;;4993076;28;20277;-75
2023/12/25 09:18:46;;;;;;;1.90;1.80;;;19.40;47.10;;;;;;4990070;28;20224;-74
2023/12/25 09:21:12;;;;;;;2.10;1.90;;;19.40;47.10;;;;;;4996058;28;20758;-74
2023/12/25 09:23:38;;;;;;;4.50;1.50;;;19.40;47.80;;;;;;4987927;28;20299;-74
2023/12/25 09:26:04;;;;;;;1.90;1.80;;;19.40;47.10;;;;;;4995540;28;20429;-74
2023/12/25 09:28:29;;;;;;;1.80;1.30;;;19.40;47.10;;;;;;4992443;28;20236;-75
2023/12/25 09:30:56;;;;;;;1.60;1.50;;;19.40;47.10;;;;;;4981619;28;20614;-75
2023/12/25 09:33:21;;;;;;;2.37;1.60;;;19.40;47.20;;;;;;4968576;28;21799;-75
2023/12/25 09:35:47;;;;;;;1.93;1.73;;;19.40;47.10;;;;;;4976167;28;20552;-74
2023/12/25 09:38:13;;;;;;;1.70;1.60;;;19.40;47.10;;;;;;4989102;28;20334;-74
2023/12/25 09:40:38;;;;;;;1.60;1.50;;;19.40;47.20;;;;;;4992656;28;20231;-76
2023/12/25 09:43:04;;;;;;;1.60;1.50;;;19.40;47.10;;;;;;4971197;28;20211;-74
2023/12/25 09:45:34;;;;;;;1.87;1.60;;;19.40;47.10;;;;;;4969039;28;20307;-76
2023/12/25 09:48:00;;;;;;;2.00;1.70;;;19.40;47.10;;;;;;4989868;28;20267;-76
2023/12/25 09:50:26;;;;;;;1.60;1.40;;;19.40;47.20;;;;;;4983368;28;21460;-77
2023/12/25 09:52:52;;;;;;;1.60;1.50;;;19.40;47.20;;;;;;4991111;28;20232;-76
2023/12/25 09:55:17;;;;;;;1.80;1.70;;;19.40;47.20;;;;;;4980165;28;20824;-76
2023/12/25 09:57:44;;;;;;;1.63;1.53;;;19.40;47.20;;;;;;4995894;28;20587;-73
2023/12/25 10:00:10;;;;;;;1.77;1.53;;;19.40;47.20;;;;;;4969125;28;20631;-76
2023/12/25 10:02:45;;;;;;;1.77;1.67;;;19.40;47.20;;;;;;4990877;28;20525;-76
2023/12/25 10:05:12;;;;;;;1.30;1.20;;;19.40;47.20;;;;;;4991697;28;20831;-75
2023/12/25 10:07:38;;;;;;;1.97;1.60;;;19.40;47.30;;;;;;4977916;28;20941;-77
2023/12/25 10:10:05;;;;;;;2.23;1.40;;;19.40;47.30;;;;;;4984658;28;20423;-77
2023/12/25 10:12:31;;;;;;;2.23;1.70;;;19.40;47.30;;;;;;4980947;28;20458;-78
2023/12/25 10:14:56;;;;;;;2.17;1.70;;;19.40;47.30;;;;;;4977707;28;20740;-78
2023/12/25 10:17:22;;;;;;;1.70;1.60;;;19.40;47.30;;;;;;4987929;28;20661;-81
2023/12/25 10:19:51;;;;;;;3.03;2.10;;;19.40;47.40;;;;;;4987448;28;20231;-86
2023/12/25 10:22:31;;;;;;;2.10;1.90;;;19.40;47.30;;;;;;4991026;28;20993;-80
2023/12/25 10:25:07;;;;;;;1.70;1.60;;;19.40;47.40;;;;;;4985909;28;20452;-84
2023/12/25 10:27:34;;;;;;;3.23;1.93;;;19.40;47.30;;;;;;4989162;28;20536;-84
2023/12/25 10:30:00;;;;;;;2.10;1.63;;;19.40;47.30;;;;;;4988094;28;21945;-83
2023/12/25 10:32:26;;;;;;;2.90;2.30;;;19.40;47.30;;;;;;4994171;28;20786;-83
2023/12/25 10:35:08;;;;;;;1.70;1.60;;;19.40;47.30;;;;;;4994630;28;20458;-77
2023/12/25 10:37:36;;;;;;;2.00;1.90;;;19.40;47.30;;;;;;4989711;28;20259;-81
2023/12/25 10:40:02;;;;;;;2.20;2.00;;;19.40;47.30;;;;;;4989310;28;21059;-75
2023/12/25 10:42:28;;;;;;;2.03;1.67;;;19.40;47.40;;;;;;4970686;28;20408;-75
2023/12/25 10:44:55;;;;;;;2.10;2.00;;;19.40;47.40;;;;;;4984860;28;20223;-76
2023/12/25 10:47:21;;;;;;;2.10;1.90;;;19.50;47.40;;;;;;4983795;28;20444;-76
2023/12/25 10:49:47;;;;;;;1.80;1.70;;;19.50;47.40;;;;;;4994006;28;20442;-76
2023/12/25 10:52:12;;;;;;;1.70;1.60;;;19.50;47.40;;;;;;4991268;28;20504;-76
2023/12/25 10:54:40;;;;;;;2.27;2.07;;;19.50;47.40;;;;;;4982087;28;20499;-76
2023/12/25 10:57:08;;;;;;;2.20;2.00;;;19.50;47.50;;;;;;4989530;28;20247;-76
2023/12/25 10:59:38;;;;;;;2.20;2.00;;;19.50;47.50;;;;;;4982418;28;20470;-76
2023/12/25 11:02:09;;;;;;;2.33;2.20;;;19.50;47.50;;;;;;4988769;28;22021;-76
2023/12/25 11:04:35;;;;;;;2.13;2.03;;;19.50;47.50;;;;;;4980185;28;20441;-75
2023/12/25 11:07:03;;;;;;;2.83;2.63;;;19.50;47.50;;;;;;4996001;28;20911;-75
2023/12/25 11:09:29;;;;;;;2.50;2.27;;;19.50;47.50;;;;;;4987691;28;20986;-76
2023/12/25 11:11:56;;;;;;;2.87;2.57;;;19.50;47.50;;;;;;5011203;28;20819;-76
2023/12/25 11:14:22;;;;;;;3.00;2.80;;;19.50;47.50;;;;;;4965704;28;21589;-76
2023/12/25 11:16:48;;;;;;;5.10;3.77;;;19.50;47.50;;;;;;4965027;28;20458;-76
2023/12/25 11:19:13;;;;;;;3.40;3.10;;;19.50;47.50;;;;;;4990463;28;21117;-75
2023/12/25 11:21:40;;;;;;;3.63;2.97;;;19.50;47.60;;;;;;4974400;28;20234;-76
2023/12/25 11:24:07;;;;;;;3.23;3.00;;;19.50;47.60;;;;;;4986701;28;20238;-76
2023/12/25 11:26:33;;;;;;;3.60;3.30;;;19.50;47.70;;;;;;4996370;28;20446;-76
2023/12/25 11:29:06;;;;;;;4.13;3.60;;;19.50;47.60;;;;;;4987446;28;20452;-76
2023/12/25 11:31:46;;;;;;;3.50;3.20;;;19.50;47.60;;;;;;4990504;28;20979;-76
2023/12/25 11:34:22;;;;;;;3.47;3.17;;;19.50;47.70;;;;;;4994945;28;20910;-76
2023/12/25 11:36:56;;;;;;;3.27;3.07;;;19.50;47.60;;;;;;4990798;28;21397;-76
2023/12/25 11:39:27;;;;;;;4.00;3.53;;;19.50;47.70;;;;;;4987542;28;20990;-76
2023/12/25 11:41:52;;;;;;;6.27;3.57;;;19.50;47.70;;;;;;4981427;28;20474;-77
2023/12/25 11:44:28;;;;;;;4.57;3.77;;;19.50;47.70;;;;;;4984538;28;20535;-76
2023/12/25 11:47:04;;;;;;;5.00;3.63;;;19.50;47.70;;;;;;4983283;28;20263;-76
2023/12/25 11:49:35;;;;;;;3.30;3.10;;;19.50;47.70;;;;;;4988991;28;20457;-74
2023/12/25 11:52:01;;;;;;;6.70;4.67;;;19.50;47.70;;;;;;4992592;28;20440;-73
2023/12/25 11:54:30;;;;;;;4.10;3.70;;;19.50;47.70;;;;;;4977229;28;20817;-72
2023/12/25 11:57:19;;;;;;;4.70;4.17;;;19.50;47.70;;;;;;4969360;28;20232;-74
2023/12/25 11:59:46;;;;;;;5.47;3.93;;;19.50;47.70;;;;;;4969882;28;20460;-71
2023/12/25 12:02:12;;;;;;;6.30;4.17;;;19.50;47.80;;;;;;4993272;28;20456;-73
2023/12/25 12:04:38;;;;;;;4.87;4.47;;;19.50;47.80;;;;;;4974295;28;20535;-79
2023/12/25 12:07:03;;;;;;;7.63;4.23;;;19.50;47.80;;;;;;4988145;28;20474;-71
2023/12/25 12:09:29;;;;;;;6.03;4.60;;;19.50;47.80;;;;;;4994258;28;20223;-71
2023/12/25 12:11:54;;;;;;;6.10;4.23;;;19.50;47.90;;;;;;4978682;28;20679;-75
2023/12/25 12:14:21;;;;;;;5.20;4.43;;;19.50;47.90;;;;;;4985646;28;20223;-75
2023/12/25 12:16:47;;;;;;;4.20;3.90;;;19.50;47.90;;;;;;4966259;28;20234;-73
2023/12/25 12:19:13;;;;;;;4.43;3.70;;;19.50;47.90;;;;;;4977010;28;20781;-75
2023/12/25 12:21:40;;;;;;;4.50;3.67;;;19.50;47.90;;;;;;4974249;28;20231;-75
2023/12/25 12:24:06;;;;;;;3.77;3.33;;;19.50;47.90;;;;;;4988519;28;20231;-73
2023/12/25 12:26:31;;;;;;;4.23;3.80;;;19.50;47.90;;;;;;4993349;28;20850;-68
2023/12/25 12:28:57;;;;;;;4.77;4.37;;;19.50;47.90;;;;;;4985554;28;20219;-69
2023/12/25 12:31:23;;;;;;;4.13;3.83;;;19.50;47.90;;;;;;4987672;28;20223;-69
2023/12/25 12:33:49;;;;;;;4.13;3.73;;;19.50;48.00;;;;;;4984822;28;20235;-70
2023/12/25 12:36:15;;;;;;;4.10;3.80;;;19.50;48.00;;;;;;4991553;28;21028;-68
2023/12/25 12:38:43;;;;;;;4.27;3.87;;;19.50;48.00;;;;;;4987813;28;20229;-70